createdAt,value
2019-05-03T00:01:42.238Z,16.65
2019-05-03T00:04:15.081Z,19.57
2019-05-03T00:06:46.704Z,22.13
2019-05-03T00:09:19.944Z,18.32
2019-05-03T00:11:52.929Z,17.73
2019-05-03T00:14:24.915Z,18.98
2019-05-03T00:16:55.893Z,19.62
2019-05-03T00:19:27.522Z,20.45
2019-05-03T00:21:58.829Z,12.78
2019-05-03T00:24:31.923Z,7.65
2019-05-03T00:27:02.880Z,5.00
2019-05-03T00:29:34.307Z,2.60
2019-05-03T00:32:05.911Z,4.53
2019-05-03T00:34:38.972Z,2.62
2019-05-03T00:37:12.596Z,5.15
2019-05-03T00:39:45.898Z,2.23
2019-05-03T00:42:17.210Z,2.15
2019-05-03T00:44:48.825Z,2.90
2019-05-03T00:47:22.212Z,2.22
2019-05-03T00:49:53.820Z,2.65
2019-05-03T00:52:25.105Z,1.70
2019-05-03T00:55:02.053Z,1.72
2019-05-03T00:57:34.539Z,4.17
2019-05-03T01:00:08.358Z,2.22
2019-05-03T01:02:42.211Z,3.17
2019-05-03T01:05:13.520Z,2.47
2019-05-03T01:07:44.748Z,2.33
2019-05-03T01:10:16.530Z,2.37
2019-05-03T01:12:47.695Z,4.12
2019-05-03T01:15:21.546Z,2.92
2019-05-03T01:17:53.795Z,1.35
2019-05-03T01:20:25.317Z,3.27
2019-05-03T01:22:57.075Z,1.95
2019-05-03T01:25:32.114Z,3.72
2019-05-03T01:28:01.942Z,2.22
2019-05-03T01:30:34.106Z,1.57
2019-05-03T01:33:05.711Z,2.02
2019-05-03T01:35:37.248Z,1.60
2019-05-03T01:38:09.181Z,2.65
2019-05-03T01:40:41.913Z,7.70
2019-05-03T01:43:14.076Z,2.33
2019-05-03T01:45:46.213Z,3.55
2019-05-03T01:48:21.589Z,3.27
2019-05-03T01:50:54.303Z,2.17
2019-05-03T01:53:26.941Z,3.17
2019-05-03T01:55:58.441Z,3.12
2019-05-03T01:58:31.917Z,3.37
2019-05-03T02:01:04.867Z,2.90
2019-05-03T02:03:35.854Z,4.75
2019-05-03T02:06:07.348Z,2.67
2019-05-03T02:08:39.122Z,2.00
2019-05-03T02:11:11.626Z,2.20
2019-05-03T02:13:43.747Z,5.20
2019-05-03T02:16:15.068Z,4.22
2019-05-03T02:18:46.428Z,5.15
2019-05-03T02:21:17.314Z,8.03
2019-05-03T02:23:48.785Z,4.55
2019-05-03T02:26:19.864Z,2.12
2019-05-03T02:28:52.726Z,3.47
2019-05-03T02:31:24.028Z,5.37
2019-05-03T02:33:55.225Z,2.52
2019-05-03T02:36:26.627Z,5.90
2019-05-03T02:38:57.932Z,3.90
2019-05-03T02:41:29.791Z,2.65
2019-05-03T02:44:01.609Z,5.45
2019-05-03T02:46:36.105Z,3.40
2019-05-03T02:49:10.713Z,7.70
2019-05-03T02:51:42.068Z,2.47
2019-05-03T02:54:15.677Z,3.83
2019-05-03T02:56:48.750Z,4.28
2019-05-03T02:59:20.179Z,2.50
2019-05-03T03:01:51.299Z,2.67
2019-05-03T03:04:25.838Z,2.75
2019-05-03T03:06:58.480Z,2.52
2019-05-03T03:09:30.537Z,2.10
2019-05-03T03:12:06.073Z,1.80
2019-05-03T03:14:38.469Z,1.60
2019-05-03T03:17:11.820Z,2.80
2019-05-03T03:19:46.327Z,2.65
2019-05-03T03:22:20.139Z,3.80
2019-05-03T03:24:57.372Z,2.47
2019-05-03T03:27:31.697Z,3.65
2019-05-03T03:30:07.819Z,3.10
2019-05-03T03:32:41.546Z,2.72
2019-05-03T03:35:21.288Z,4.42
2019-05-03T03:37:50.274Z,2.27
2019-05-03T03:40:25.235Z,2.62
2019-05-03T03:42:57.039Z,2.22
2019-05-03T03:45:28.546Z,3.90
2019-05-03T03:48:05.082Z,3.87
2019-05-03T03:50:36.983Z,2.45
2019-05-03T03:53:11.720Z,2.05
2019-05-03T03:55:46.293Z,2.70
2019-05-03T03:58:22.889Z,5.17
2019-05-03T04:00:51.139Z,2.50
2019-05-03T04:03:25.680Z,2.75
2019-05-03T04:05:56.111Z,2.92
2019-05-03T04:08:28.187Z,2.10
2019-05-03T04:10:59.820Z,2.92
2019-05-03T04:13:31.618Z,5.15
2019-05-03T04:16:05.537Z,2.43
2019-05-03T04:18:38.881Z,2.77
2019-05-03T04:21:11.253Z,3.60
2019-05-03T04:23:45.843Z,4.15
2019-05-03T04:26:17.960Z,6.03
2019-05-03T04:28:49.809Z,6.65
2019-05-03T04:31:26.093Z,7.62
2019-05-03T04:33:57.994Z,3.77
2019-05-03T04:36:29.588Z,2.98
2019-05-03T04:39:00.513Z,3.70
2019-05-03T04:41:35.542Z,4.95
2019-05-03T04:44:06.563Z,5.33
2019-05-03T04:46:38.458Z,3.42
2019-05-03T04:49:10.332Z,2.27
2019-05-03T04:51:41.621Z,6.87
2019-05-03T04:54:16.379Z,7.07
2019-05-03T04:56:47.657Z,4.08
2019-05-03T04:59:18.851Z,2.42
2019-05-03T05:01:50.287Z,2.75
2019-05-03T05:04:21.547Z,4.72
2019-05-03T05:06:55.358Z,3.20
2019-05-03T05:09:26.453Z,5.40
2019-05-03T05:11:57.788Z,4.57
2019-05-03T05:14:29.038Z,3.10
2019-05-03T05:17:00.425Z,4.83
2019-05-03T05:19:35.634Z,6.83
2019-05-03T05:22:07.607Z,4.22
2019-05-03T05:24:39.270Z,8.30
2019-05-03T05:27:14.482Z,3.90
2019-05-03T05:29:45.216Z,2.45
2019-05-03T05:32:16.638Z,8.63
2019-05-03T05:34:48.190Z,4.62
2019-05-03T05:37:19.591Z,2.63
2019-05-03T05:39:51.024Z,10.40
2019-05-03T05:42:22.249Z,7.60
2019-05-03T05:44:55.557Z,4.55
2019-05-03T05:47:28.456Z,6.08
2019-05-03T05:50:01.839Z,6.10
2019-05-03T05:52:34.654Z,2.47
2019-05-03T05:55:08.956Z,7.37
2019-05-03T05:57:41.585Z,10.98
2019-05-03T06:00:15.320Z,6.85
2019-05-03T06:02:46.819Z,7.45
2019-05-03T06:05:18.860Z,11.53
2019-05-03T06:07:51.945Z,2.55
2019-05-03T06:10:25.067Z,6.20
2019-05-03T06:12:58.185Z,3.98
2019-05-03T06:15:30.831Z,3.98
2019-05-03T06:18:05.780Z,11.17
2019-05-03T06:20:38.805Z,5.17
2019-05-03T06:23:11.298Z,2.05
2019-05-03T06:25:45.274Z,5.17
2019-05-03T06:28:20.844Z,5.77
2019-05-03T06:30:50.500Z,4.37
2019-05-03T06:33:24.346Z,12.85
2019-05-03T06:35:55.630Z,5.05
2019-05-03T06:38:27.096Z,3.72
2019-05-03T06:40:58.742Z,7.45
2019-05-03T06:43:30.459Z,4.10
2019-05-03T06:46:01.572Z,2.75
2019-05-03T06:48:34.803Z,7.45
2019-05-03T06:51:10.994Z,4.12
2019-05-03T06:53:41.788Z,4.62
2019-05-03T06:56:14.741Z,4.83
2019-05-03T06:58:47.030Z,7.08
2019-05-03T07:01:19.743Z,7.03
2019-05-03T07:03:54.899Z,10.00
2019-05-03T07:06:37.362Z,10.35
2019-05-03T07:09:02.925Z,4.55
2019-05-03T07:11:38.046Z,7.83
2019-05-03T07:14:13.059Z,5.30
2019-05-03T07:16:44.497Z,12.25
2019-05-03T07:19:15.628Z,10.23
2019-05-03T07:21:47.137Z,12.80
2019-05-03T07:24:18.009Z,6.10
2019-05-03T07:26:49.609Z,8.53
2019-05-03T07:29:22.537Z,7.22
2019-05-03T07:31:54.957Z,7.47
2019-05-03T07:34:27.462Z,10.70
2019-05-03T07:36:58.674Z,14.47
2019-05-03T07:39:29.833Z,8.30
2019-05-03T07:42:00.849Z,4.67
2019-05-03T07:44:31.850Z,7.65
2019-05-03T07:47:04.832Z,6.33
2019-05-03T07:49:35.826Z,9.70
2019-05-03T07:52:06.971Z,6.12
2019-05-03T07:54:38.289Z,4.05
2019-05-03T07:57:11.156Z,3.27
2019-05-03T07:59:42.032Z,12.35
2019-05-03T08:02:14.464Z,9.23
2019-05-03T08:04:45.650Z,6.67
2019-05-03T08:07:22.398Z,7.45
2019-05-03T08:09:49.495Z,11.20
2019-05-03T08:12:21.010Z,9.45
2019-05-03T08:14:54.985Z,9.00
2019-05-03T08:17:25.960Z,6.22
2019-05-03T08:19:58.129Z,8.35
2019-05-03T08:22:29.569Z,13.78
2019-05-03T08:25:00.610Z,8.53
2019-05-03T08:27:31.633Z,9.68
2019-05-03T08:30:11.132Z,7.72
2019-05-03T08:32:45.845Z,8.23
2019-05-03T08:35:21.728Z,5.05
2019-05-03T08:37:54.806Z,7.45
2019-05-03T08:40:27.582Z,5.10
2019-05-03T08:43:02.124Z,3.55
2019-05-03T08:45:34.686Z,8.23
2019-05-03T08:48:06.252Z,12.13
2019-05-03T08:50:37.036Z,8.78
2019-05-03T08:53:07.787Z,10.72
2019-05-03T08:55:38.845Z,8.30
2019-05-03T08:58:10.064Z,6.80
2019-05-03T09:00:42.240Z,7.47
2019-05-03T09:03:14.402Z,9.15
2019-05-03T09:05:46.237Z,4.47
2019-05-03T09:08:19.020Z,9.60
2019-05-03T09:10:54.544Z,12.23
2019-05-03T09:13:25.819Z,5.45
2019-05-03T09:15:57.226Z,11.63
2019-05-03T09:21:27.191Z,12.15
2019-05-03T09:23:59.816Z,13.75
2019-05-03T09:26:31.456Z,6.67
2019-05-03T09:29:03.028Z,4.53
2019-05-03T09:31:39.528Z,5.62
2019-05-03T09:34:12.196Z,3.47
2019-05-03T09:36:44.855Z,8.83
2019-05-03T09:39:17.807Z,6.72
2019-05-03T09:41:49.293Z,6.35
2019-05-03T09:44:21.996Z,8.88
2019-05-03T09:46:54.976Z,7.47
2019-05-03T09:49:28.035Z,17.30
2019-05-03T09:51:59.790Z,3.20
2019-05-03T09:54:34.776Z,3.40
2019-05-03T09:57:07.758Z,8.05
2019-05-03T09:59:53.301Z,8.03
2019-05-03T10:02:15.154Z,9.28
2019-05-03T10:04:48.139Z,7.47
2019-05-03T10:07:19.698Z,6.25
2019-05-03T10:09:55.049Z,3.15
2019-05-03T10:12:26.010Z,7.45
2019-05-03T10:14:57.995Z,6.90
2019-05-03T10:17:31.218Z,6.70
2019-05-03T10:20:07.043Z,5.53
2019-05-03T10:22:38.634Z,5.22
2019-05-03T10:25:12.385Z,4.40
2019-05-03T10:27:45.967Z,2.22
2019-05-03T10:30:21.033Z,4.65
2019-05-03T10:32:55.189Z,7.60
2019-05-03T10:35:26.739Z,2.95
2019-05-03T10:37:58.392Z,9.90
2019-05-03T10:40:30.593Z,7.08
2019-05-03T10:43:01.926Z,5.35
2019-05-03T10:45:35.511Z,9.45
2019-05-03T10:48:08.920Z,4.25
2019-05-03T10:50:40.457Z,5.37
2019-05-03T10:53:15.394Z,3.83
2019-05-03T10:55:51.771Z,10.00
2019-05-03T10:58:25.040Z,2.83
2019-05-03T11:00:56.846Z,6.35
2019-05-03T11:03:29.086Z,3.58
2019-05-03T11:06:02.218Z,6.50
2019-05-03T11:08:33.645Z,3.37
2019-05-03T11:11:06.698Z,3.45
2019-05-03T11:13:38.643Z,4.42
2019-05-03T11:16:10.177Z,4.55
2019-05-03T11:18:41.460Z,4.42
2019-05-03T11:21:14.428Z,2.83
2019-05-03T11:23:47.914Z,8.05
2019-05-03T11:26:21.303Z,9.48
2019-05-03T11:28:59.250Z,7.55
2019-05-03T11:31:29.163Z,2.02
2019-05-03T11:34:03.834Z,6.78
2019-05-03T11:36:37.215Z,4.05
2019-05-03T11:39:08.358Z,3.00
2019-05-03T11:41:44.957Z,7.00
2019-05-03T11:44:19.485Z,5.05
2019-05-03T11:46:54.971Z,5.28
2019-05-03T11:49:27.481Z,3.95
2019-05-03T11:51:58.978Z,5.33
2019-05-03T11:54:31.646Z,3.67
2019-05-03T11:57:06.315Z,9.60
2019-05-03T11:59:37.970Z,3.80
2019-05-03T12:02:12.491Z,8.55
2019-05-03T12:04:45.955Z,3.12
2019-05-03T12:07:18.890Z,10.65
2019-05-03T12:09:50.674Z,3.42
2019-05-03T12:12:24.487Z,11.65
2019-05-03T12:14:57.396Z,7.47
2019-05-03T12:17:50.461Z,6.10
2019-05-03T12:20:17.992Z,5.28
2019-05-03T12:22:48.917Z,6.40
2019-05-03T12:25:21.449Z,4.35
2019-05-03T12:30:27.485Z,8.90
2019-05-03T12:32:57.134Z,4.10
2019-05-03T12:35:30.183Z,5.15
2019-05-03T12:38:05.334Z,2.90
2019-05-03T12:40:36.438Z,2.60
2019-05-03T12:43:07.939Z,5.75
2019-05-03T12:45:40.460Z,5.90
2019-05-03T12:48:12.380Z,4.10
2019-05-03T12:50:47.215Z,4.55
2019-05-03T12:53:22.062Z,7.40
2019-05-03T12:55:53.691Z,2.90
2019-05-03T12:58:27.594Z,6.35
2019-05-03T13:01:00.521Z,5.10
2019-05-03T13:03:35.446Z,6.00
2019-05-03T13:06:07.462Z,4.20
2019-05-03T13:08:41.906Z,3.15
2019-05-03T13:11:13.452Z,5.90
2019-05-03T13:13:45.416Z,5.87
2019-05-03T13:16:18.317Z,7.40
2019-05-03T13:18:51.177Z,6.97
2019-05-03T13:21:22.377Z,5.90
2019-05-03T13:23:54.779Z,4.30
2019-05-03T13:26:27.125Z,9.08
2019-05-03T13:28:59.771Z,4.30
2019-05-03T13:31:34.653Z,3.75
2019-05-03T13:34:06.809Z,5.15
2019-05-03T13:36:39.561Z,4.08
2019-05-03T13:39:14.416Z,6.75
2019-05-03T13:41:45.555Z,3.52
2019-05-03T13:44:16.832Z,6.58
2019-05-03T13:46:48.078Z,4.53
2019-05-03T13:49:19.465Z,6.72
2019-05-03T13:51:51.177Z,10.55
2019-05-03T13:54:23.045Z,4.27
2019-05-03T13:56:55.186Z,5.58
2019-05-03T13:59:26.764Z,5.28
2019-05-03T14:02:11.509Z,5.15
2019-05-03T14:04:30.861Z,4.95
2019-05-03T14:07:01.765Z,11.30
2019-05-03T14:09:34.737Z,5.10
2019-05-03T14:12:07.615Z,6.20
2019-05-03T14:14:40.373Z,6.40
2019-05-03T14:17:11.662Z,4.28
2019-05-03T14:19:45.162Z,5.20
2019-05-03T14:22:16.061Z,1.40
2019-05-03T14:24:47.269Z,5.00
2019-05-03T14:27:18.590Z,3.60
2019-05-03T14:29:49.945Z,7.87
2019-05-03T14:32:27.611Z,5.20
2019-05-03T14:34:54.755Z,4.42
2019-05-03T14:37:27.188Z,2.55
2019-05-03T14:42:29.606Z,2.70
2019-05-03T14:45:00.780Z,4.50
2019-05-03T14:47:31.780Z,8.65
2019-05-03T14:50:05.476Z,5.17
2019-05-03T14:52:36.133Z,4.03
2019-05-03T14:55:09.852Z,4.17
2019-05-03T14:57:46.689Z,5.75
2019-05-03T15:00:24.999Z,7.10
2019-05-03T15:03:02.094Z,9.80
2019-05-03T15:05:38.666Z,7.03
2019-05-03T15:08:15.759Z,4.50
2019-05-03T15:10:47.991Z,6.80
2019-05-03T15:13:19.045Z,3.87
2019-05-03T15:15:50.389Z,6.00
2019-05-03T15:18:21.700Z,4.80
2019-05-03T15:20:54.909Z,5.63
2019-05-03T15:23:26.972Z,7.80
2019-05-03T15:25:58.108Z,5.90
2019-05-03T15:28:29.804Z,3.73
2019-05-03T15:31:01.696Z,6.25
2019-05-03T15:33:32.836Z,4.30
2019-05-03T15:36:05.222Z,9.08
2019-05-03T15:38:41.997Z,7.15
2019-05-03T15:41:14.670Z,4.03
2019-05-03T15:43:48.601Z,4.58
2019-05-03T15:46:22.256Z,5.70
2019-05-03T15:48:56.043Z,5.15
2019-05-03T15:51:28.067Z,4.15
2019-05-03T15:54:00.075Z,10.48
2019-05-03T15:56:31.811Z,3.75
2019-05-03T15:59:04.462Z,7.55
2019-05-03T16:01:36.154Z,6.13
2019-05-03T16:04:07.894Z,5.23
2019-05-03T16:06:39.621Z,7.92
2019-05-03T16:09:12.811Z,10.50
2019-05-03T16:11:45.108Z,7.03
2019-05-03T16:14:17.072Z,7.42
2019-05-03T16:16:48.970Z,3.98
2019-05-03T16:19:20.402Z,5.90
2019-05-03T16:21:51.868Z,6.10
2019-05-03T16:24:24.913Z,6.40
2019-05-03T16:26:57.847Z,5.55
2019-05-03T16:29:38.209Z,9.40
2019-05-03T16:32:11.973Z,16.15
2019-05-03T16:34:45.541Z,11.45
2019-05-03T16:37:16.579Z,13.37
2019-05-03T16:39:48.012Z,15.72
2019-05-03T16:42:18.941Z,29.73
2019-05-03T16:44:50.587Z,9.53
2019-05-03T16:47:21.731Z,4.22
2019-05-03T16:49:52.723Z,5.95
2019-05-03T16:52:25.651Z,11.17
2019-05-03T16:54:56.931Z,7.35
2019-05-03T16:57:28.213Z,7.87
2019-05-03T16:59:59.523Z,8.20
2019-05-03T17:02:30.579Z,6.55
2019-05-03T17:05:04.800Z,11.45
2019-05-03T17:07:37.547Z,6.08
2019-05-03T17:10:12.070Z,8.85
2019-05-03T17:12:43.059Z,12.13
2019-05-03T17:15:15.124Z,6.87
2019-05-03T17:17:46.817Z,8.30
2019-05-03T17:20:18.300Z,8.70
2019-05-03T17:22:49.371Z,10.23
2019-05-03T17:25:20.915Z,8.33
2019-05-03T17:27:52.099Z,12.45
2019-05-03T17:30:32.648Z,10.20
2019-05-03T17:32:56.131Z,7.78
2019-05-03T17:35:27.590Z,6.65
2019-05-03T17:38:01.731Z,8.95
2019-05-03T17:40:34.948Z,9.08
2019-05-03T17:43:24.419Z,14.50
2019-05-03T17:46:25.405Z,8.98
2019-05-03T17:49:12.379Z,8.58
2019-05-03T17:51:56.747Z,6.42
2019-05-03T17:54:41.125Z,11.35
2019-05-03T17:57:27.550Z,12.00
2019-05-03T18:00:14.867Z,9.70
2019-05-03T18:02:51.618Z,8.60
2019-05-03T18:05:25.306Z,10.95
2019-05-03T18:08:02.619Z,7.58
2019-05-03T18:10:37.498Z,5.22
2019-05-03T18:13:18.515Z,4.75
2019-05-03T18:16:06.708Z,10.88
2019-05-03T18:18:58.627Z,10.72
2019-05-03T18:21:46.051Z,8.80
2019-05-03T18:24:25.931Z,11.03
2019-05-03T18:26:58.363Z,5.12
2019-05-03T18:29:42.700Z,6.67
2019-05-03T18:32:27.004Z,9.05
2019-05-03T18:35:15.293Z,5.95
2019-05-03T18:37:55.604Z,8.98
2019-05-03T18:40:38.562Z,8.23
2019-05-03T18:43:34.583Z,7.90
2019-05-03T18:46:21.483Z,12.18
2019-05-03T18:49:07.783Z,11.93
2019-05-03T19:00:02.252Z,273.00
2019-05-03T19:08:00.059Z,109.37
2019-05-03T19:10:41.179Z,89.93
2019-05-03T19:13:20.789Z,74.75
2019-05-03T19:16:09.803Z,80.10
2019-05-03T19:18:47.179Z,41.63
2019-05-03T19:21:26.044Z,17.15
2019-05-03T19:24:09.003Z,36.50
2019-05-03T19:26:55.779Z,167.15
2019-05-03T19:29:31.802Z,197.45
2019-05-03T19:32:04.593Z,212.50
2019-05-03T19:34:51.312Z,133.50
2019-05-03T20:06:31.660Z,22.00
2019-05-03T20:09:09.087Z,21.93
2019-05-03T20:11:46.283Z,15.38
2019-05-03T20:14:17.634Z,13.08
2019-05-03T20:19:51.362Z,13.70
2019-05-03T20:22:29.354Z,11.18
2019-05-03T20:25:01.793Z,9.45
2019-05-03T20:27:36.579Z,6.25
2019-05-03T20:30:09.471Z,6.35
2019-05-03T20:32:41.219Z,6.72
2019-05-03T20:35:18.752Z,8.08
2019-05-03T20:37:47.533Z,12.23
2019-05-03T20:40:28.471Z,13.08
2019-05-03T20:43:17.244Z,17.80
2019-05-03T20:46:05.432Z,12.15
2019-05-03T20:48:45.471Z,24.32
2019-05-03T20:58:57.071Z,16.77
2019-05-03T21:01:28.877Z,15.25
2019-05-03T21:04:00.747Z,20.20
2019-05-03T21:06:35.709Z,14.23
2019-05-03T21:09:07.786Z,15.60
2019-05-03T21:14:15.574Z,13.80
2019-05-03T21:16:48.388Z,11.90
2019-05-03T21:19:21.163Z,11.60
2019-05-03T21:21:55.071Z,13.15
2019-05-03T21:24:28.148Z,14.15
2019-05-03T21:26:59.858Z,12.70
2019-05-03T21:29:34.942Z,11.50
2019-05-03T21:32:06.745Z,12.10
2019-05-03T21:34:37.947Z,12.00
2019-05-03T21:37:10.426Z,14.20
2019-05-03T21:39:42.762Z,13.00
2019-05-03T22:07:35.070Z,9.95
2019-05-03T22:10:08.911Z,12.60
2019-05-03T22:22:50.880Z,16.17
2019-05-03T22:45:34.883Z,10.50
2019-05-03T23:03:19.079Z,11.87
2019-05-03T23:08:22.433Z,13.40
2019-05-03T23:10:54.654Z,10.70
2019-05-03T23:13:26.970Z,11.80
2019-05-03T23:15:59.509Z,12.40
2019-05-03T23:18:32.827Z,11.73
2019-05-03T23:21:06.489Z,15.40
2019-05-03T23:23:40.160Z,10.87
2019-05-03T23:26:11.450Z,11.50
2019-05-03T23:28:44.589Z,11.60
2019-05-03T23:31:16.757Z,11.70
2019-05-03T23:33:50.042Z,11.70
2019-05-03T23:38:55.088Z,12.40
2019-05-03T23:41:27.284Z,15.77
2019-05-03T23:43:58.575Z,9.20
2019-05-03T23:46:31.414Z,15.60
2019-05-03T23:49:03.345Z,15.95
2019-05-03T23:54:07.568Z,11.35
